Time;durP1;ratioP1;P1;durP2;ratioP2;P2;SDS_P1;SDS_P2;PMS_P1;PMS_P2;Temp;Humidity;BMP_temperature;BMP_pressure;BME280_temperature;BME280_humidity;BME280_pressure;Samples;Min_cycle;Max_cycle;Signal;HPM_P1;HPM_P2
2023/01/21 00:00:27;;;;;;;;;;;;;;;11.49;69.68;102364.56;1260731;23;665;-68
2023/01/21 00:01:17;;;;;;;;;;;;;;;11.49;69.61;102363.69;1259365;23;622;-68
2023/01/21 00:02:08;;;;;;;;;;;;;;;11.48;68.88;102369.97;1259579;23;653;-70
2023/01/21 00:02:58;;;;;;;;;;;;;;;11.48;68.93;102376.16;1259802;23;630;-69
2023/01/21 00:03:49;;;;;;;;;;;;;;;11.45;68.91;102373.66;1259520;23;594;-68
2023/01/21 00:04:39;;;;;;;;;;;;;;;11.48;69.72;102375.28;1259706;23;633;-68
2023/01/21 00:05:30;;;;;;;;;;;;;;;11.49;69.50;102380.56;1259442;23;586;-68
2023/01/21 00:06:20;;;;;;;;;;;;;;;11.49;69.84;102377.91;1259601;23;701;-68
2023/01/21 00:07:10;;;;;;;;;;;;;;;11.49;69.14;102388.56;1259518;23;633;-68
2023/01/21 00:08:01;;;;;;;;;;;;;;;11.49;69.03;102387.72;1261128;23;644;-68
2023/01/21 00:08:51;;;;;;;;;;;;;;;11.46;69.97;102388.72;1259758;23;614;-67
2023/01/21 00:09:42;;;;;;;;;;;;;;;11.47;69.58;102389.56;1261240;23;634;-67
2023/01/21 00:10:32;;;;;;;;;;;;;;;11.45;69.46;102391.47;1259695;23;677;-67
2023/01/21 00:11:23;;;;;;;;;;;;;;;11.45;69.53;102387.00;1254810;23;597;-67
2023/01/21 00:12:13;;;;;;;;;;;;;;;11.45;69.11;102386.13;1255050;23;650;-68
2023/01/21 00:13:03;;;;;;;;;;;;;;;11.44;69.28;102390.59;1260305;23;717;-67
2023/01/21 00:13:54;;;;;;;;;;;;;;;11.45;69.86;102389.66;1259410;23;599;-67
2023/01/21 00:14:44;;;;;;;;;;;;;;;11.44;69.52;102392.41;1260669;23;601;-67
2023/01/21 00:15:35;;;;;;;;;;;;;;;11.46;69.46;102396.72;1259579;23;645;-67
2023/01/21 00:16:25;;;;;;;;;;;;;;;11.44;69.17;102390.59;1259477;23;1949;-67
2023/01/21 00:17:16;;;;;;;;;;;;;;;11.45;69.29;102403.03;1259525;23;587;-68
2023/01/21 00:18:06;;;;;;;;;;;;;;;11.44;69.32;102398.63;1261214;23;677;-70
2023/01/21 00:18:56;;;;;;;;;;;;;;;11.43;69.40;102399.56;1260654;23;610;-68
2023/01/21 00:19:47;;;;;;;;;;;;;;;11.43;69.36;102399.56;1260490;23;617;-69
2023/01/21 00:20:37;;;;;;;;;;;;;;;11.42;69.37;102403.16;1254649;23;614;-68
2023/01/21 00:21:28;;;;;;;;;;;;;;;11.40;69.70;102405.00;1254801;23;693;-68
2023/01/21 00:22:18;;;;;;;;;;;;;;;11.39;69.90;102405.06;1260217;23;605;-68
2023/01/21 00:23:09;;;;;;;;;;;;;;;11.40;70.27;102406.81;1259552;23;599;-68
2023/01/21 00:24:00;;;;;;;;;;;;;;;11.42;70.03;102404.94;1261382;23;617;-69
2023/01/21 00:24:50;;;;;;;;;;;;;;;11.41;69.30;102409.41;1259668;23;637;-68
2023/01/21 00:25:41;;;;;;;;;;;;;;;11.37;69.52;102410.47;1259492;23;610;-68
2023/01/21 00:26:31;;;;;;;;;;;;;;;11.40;70.10;102415.69;1259713;23;700;-68
2023/01/21 00:27:22;;;;;;;;;;;;;;;11.40;70.03;102409.47;1261249;23;1049;-69
2023/01/21 00:28:12;;;;;;;;;;;;;;;11.40;69.65;102413.03;1259912;23;1007;-69
2023/01/21 00:29:03;;;;;;;;;;;;;;;11.43;69.67;102420.91;1259530;23;661;-70
2023/01/21 00:29:53;;;;;;;;;;;;;;;11.43;69.21;102412.91;1259729;23;642;-68
2023/01/21 00:30:44;;;;;;;;;;;;;;;11.42;69.70;102416.50;1259563;23;646;-68
2023/01/21 00:31:34;;;;;;;;;;;;;;;11.41;69.38;102408.56;1259675;23;716;-69
2023/01/21 00:32:24;;;;;;;;;;;;;;;11.42;69.15;102413.81;1259407;23;611;-69
2023/01/21 00:33:15;;;;;;;;;;;;;;;11.40;69.99;102409.47;1261294;23;625;-69
2023/01/21 00:34:05;;;;;;;;;;;;;;;11.41;70.10;102412.09;1259728;23;653;-69
2023/01/21 00:34:56;;;;;;;;;;;;;;;11.41;69.70;102408.56;1259508;23;1093;-69
2023/01/21 00:35:46;;;;;;;;;;;;;;;11.39;69.70;102413.94;1259773;23;602;-68
2023/01/21 00:36:37;;;;;;;;;;;;;;;11.39;70.03;102411.28;1259306;23;1913;-68
2023/01/21 00:37:27;;;;;;;;;;;;;;;11.37;69.74;102414.94;1259719;23;604;-68
2023/01/21 00:38:17;;;;;;;;;;;;;;;11.37;69.50;102413.16;1254939;23;637;-68
2023/01/21 00:39:08;;;;;;;;;;;;;;;11.40;69.35;102420.16;1254929;23;609;-68
2023/01/21 00:39:58;;;;;;;;;;;;;;;11.38;69.87;102409.53;1260611;23;649;-68
2023/01/21 00:40:49;;;;;;;;;;;;;;;11.40;69.79;102406.81;1259499;23;618;-69
2023/01/21 00:41:39;;;;;;;;;;;;;;;11.39;69.95;102410.41;1259709;23;618;-69
2023/01/21 00:42:30;;;;;;;;;;;;;;;11.40;69.97;102413.03;1259773;23;661;-69
2023/01/21 00:43:20;;;;;;;;;;;;;;;11.38;69.20;102406.88;1259706;23;642;-68
2023/01/21 00:44:11;;;;;;;;;;;;;;;11.39;69.83;102411.28;1259180;23;649;-68
2023/01/21 00:45:01;;;;;;;;;;;;;;;11.40;69.81;102409.47;1259639;23;662;-69
2023/01/21 00:45:51;;;;;;;;;;;;;;;11.38;69.54;102416.69;1259785;23;614;-69
2023/01/21 00:46:42;;;;;;;;;;;;;;;11.37;69.35;102410.47;1259982;23;649;-68
2023/01/21 00:47:32;;;;;;;;;;;;;;;11.36;69.90;102405.22;1259773;23;623;-68
2023/01/21 00:48:23;;;;;;;;;;;;;;;11.37;70.19;102409.63;1259499;23;685;-69
2023/01/21 00:49:13;;;;;;;;;;;;;;;11.38;69.64;102414.88;1260091;23;677;-68
2023/01/21 00:50:04;;;;;;;;;;;;;;;11.38;69.04;102409.53;1259493;23;603;-69
2023/01/21 00:50:54;;;;;;;;;;;;;;;11.36;69.23;102411.41;1259707;23;689;-69
2023/01/21 00:51:45;;;;;;;;;;;;;;;11.35;69.93;102412.34;1260874;23;610;-69
2023/01/21 00:52:35;;;;;;;;;;;;;;;11.39;70.17;102413.09;1259842;23;630;-68
2023/01/21 00:53:26;;;;;;;;;;;;;;;11.39;70.17;102416.63;1259954;23;630;-69
2023/01/21 00:54:16;;;;;;;;;;;;;;;11.37;69.20;102410.47;1260246;23;933;-69
2023/01/21 00:55:07;;;;;;;;;;;;;;;11.37;69.99;102414.94;1259549;23;638;-69
2023/01/21 00:55:57;;;;;;;;;;;;;;;11.37;69.55;102413.16;1260137;23;632;-69
2023/01/21 00:56:48;;;;;;;;;;;;;;;11.37;69.90;102420.28;1259400;23;598;-70
2023/01/21 00:57:38;;;;;;;;;;;;;;;11.35;69.98;102417.69;1259587;23;624;-69
2023/01/21 00:58:28;;;;;;;;;;;;;;;11.37;70.21;102418.47;1258921;23;637;-69
2023/01/21 00:59:19;;;;;;;;;;;;;;;11.37;69.88;102421.16;1259582;23;594;-69
2023/01/21 01:00:11;;;;;;;;;;;;;;;11.38;69.76;102420.22;1259882;23;710;-69
2023/01/21 01:01:02;;;;;;;;;;;;;;;11.38;69.05;102417.56;1260559;23;632;-68
2023/01/21 01:01:52;;;;;;;;;;;;;;;11.37;69.12;102430.97;1259740;23;594;-69
2023/01/21 01:02:43;;;;;;;;;;;;;;;11.35;69.77;102422.16;1259497;23;638;-69
2023/01/21 01:03:33;;;;;;;;;;;;;;;11.34;70.09;102431.97;1259807;23;649;-69
2023/01/21 01:04:24;;;;;;;;;;;;;;;11.34;69.48;102431.09;1254868;23;665;-68
2023/01/21 01:05:14;;;;;;;;;;;;;;;11.36;69.79;102429.22;1254961;23;641;-69
2023/01/21 01:06:04;;;;;;;;;;;;;;;11.36;69.30;102426.56;1260406;23;680;-69
2023/01/21 01:06:55;;;;;;;;;;;;;;;11.33;69.71;102427.56;1259597;23;642;-68
2023/01/21 01:07:46;;;;;;;;;;;;;;;11.34;69.85;102426.63;1260186;23;623;-69
2023/01/21 01:08:36;;;;;;;;;;;;;;;11.31;69.88;102440.09;1261437;23;630;-69
2023/01/21 01:09:27;;;;;;;;;;;;;;;11.33;69.59;102434.69;1259478;23;602;-69
2023/01/21 01:10:17;;;;;;;;;;;;;;;11.32;69.56;102432.94;1260171;23;594;-69
2023/01/21 01:11:08;;;;;;;;;;;;;;;11.31;69.28;102442.75;1254915;23;799;-69
2023/01/21 01:11:58;;;;;;;;;;;;;;;11.32;69.54;102439.16;1254879;23;650;-69
2023/01/21 01:12:49;;;;;;;;;;;;;;;11.33;70.15;102442.69;1260687;23;793;-68
2023/01/21 01:13:39;;;;;;;;;;;;;;;11.33;70.08;102445.38;1259578;23;616;-68
2023/01/21 01:14:29;;;;;;;;;;;;;;;11.30;70.05;102443.69;1260388;23;708;-68
2023/01/21 01:15:20;;;;;;;;;;;;;;;11.29;69.37;102444.63;1260062;23;627;-69
2023/01/21 01:16:10;;;;;;;;;;;;;;;11.31;69.43;102444.56;1259758;23;1943;-68
2023/01/21 01:17:01;;;;;;;;;;;;;;;11.32;69.59;102449.84;1260018;23;610;-69
2023/01/21 01:17:51;;;;;;;;;;;;;;;11.31;69.43;102450.75;1259705;23;697;-68
2023/01/21 01:18:42;;;;;;;;;;;;;;;11.33;70.11;102450.69;1254792;23;602;-69
2023/01/21 01:19:32;;;;;;;;;;;;;;;11.35;69.54;102454.19;1255355;23;674;-68
2023/01/21 01:20:22;;;;;;;;;;;;;;;11.34;69.91;102455.97;1260300;23;624;-68
2023/01/21 01:21:13;;;;;;;;;;;;;;;11.33;69.80;102456.91;1259422;23;614;-68
2023/01/21 01:22:03;;;;;;;;;;;;;;;11.33;69.47;102456.03;1260322;23;654;-68
2023/01/21 01:22:54;;;;;;;;;;;;;;;11.33;69.40;102451.56;1259546;23;611;-68
2023/01/21 01:23:44;;;;;;;;;;;;;;;11.33;69.85;102459.56;1259848;23;622;-69
2023/01/21 01:24:35;;;;;;;;;;;;;;;11.33;69.74;102462.25;1260340;23;603;-69
2023/01/21 01:25:25;;;;;;;;;;;;;;;11.35;69.46;102470.19;1255324;23;622;-69
2023/01/21 01:26:15;;;;;;;;;;;;;;;11.33;69.96;102461.38;1255769;23;622;-69
2023/01/21 01:27:06;;;;;;;;;;;;;;;11.33;69.42;102466.72;1260569;23;638;-69
2023/01/21 01:27:56;;;;;;;;;;;;;;;11.32;69.79;102464.97;1255250;23;761;-67
2023/01/21 01:28:47;;;;;;;;;;;;;;;11.32;70.05;102465.84;1255487;23;652;-68
2023/01/21 01:29:37;;;;;;;;;;;;;;;11.30;69.65;102459.69;1255165;23;677;-68
2023/01/21 01:30:28;;;;;;;;;;;;;;;11.33;69.82;102464.03;1256170;23;701;-69
2023/01/21 01:31:18;;;;;;;;;;;;;;;11.32;69.59;102463.19;1261985;23;617;-68
2023/01/21 01:32:09;;;;;;;;;;;;;;;11.33;69.41;102458.72;1261596;23;723;-68
2023/01/21 01:32:59;;;;;;;;;;;;;;;11.32;69.24;102463.19;1259781;23;670;-69
2023/01/21 01:33:49;;;;;;;;;;;;;;;11.34;69.47;102463.97;1260566;23;697;-69
2023/01/21 01:34:40;;;;;;;;;;;;;;;11.35;69.93;102468.41;1259655;23;1418;-68
2023/01/21 01:35:30;;;;;;;;;;;;;;;11.31;69.51;102468.56;1260406;23;661;-68
2023/01/21 01:36:24;;;;;;;;;;;;;;;11.32;69.76;102470.31;1260046;23;1952;-68
2023/01/21 01:37:14;;;;;;;;;;;;;;;11.32;69.35;102470.31;1260004;23;642;-68
2023/01/21 01:38:07;;;;;;;;;;;;;;;11.32;69.55;102468.50;1260237;23;608;-68
2023/01/21 01:38:58;;;;;;;;;;;;;;;11.31;69.37;102472.13;1261769;23;645;-68
2023/01/21 01:39:48;;;;;;;;;;;;;;;11.30;69.44;102473.03;1255254;23;648;-68
2023/01/21 01:40:39;;;;;;;;;;;;;;;11.28;69.29;102472.28;1255678;23;613;-68
2023/01/21 01:41:29;;;;;;;;;;;;;;;11.28;69.70;102469.59;1260783;23;618;-68
2023/01/21 01:42:20;;;;;;;;;;;;;;;11.28;69.68;102477.59;1259819;23;650;-68
2023/01/21 01:43:10;;;;;;;;;;;;;;;11.27;69.34;102480.34;1255842;23;661;-68
2023/01/21 01:44:01;;;;;;;;;;;;;;;11.28;70.14;102479.41;1255151;23;618;-67
2023/01/21 01:44:51;;;;;;;;;;;;;;;11.29;69.37;102481.97;1260663;23;717;-67
2023/01/21 01:45:42;;;;;;;;;;;;;;;11.30;70.00;102482.84;1255530;23;618;-68
2023/01/21 01:46:32;;;;;;;;;;;;;;;11.30;69.57;102483.72;1255557;23;637;-68
2023/01/21 01:47:22;;;;;;;;;;;;;;;11.29;69.50;102486.44;1260650;23;713;-68
2023/01/21 01:48:13;;;;;;;;;;;;;;;11.31;69.60;102484.59;1261771;23;568;-67
2023/01/21 01:49:03;;;;;;;;;;;;;;;11.32;69.76;102491.66;1260065;23;645;-67
2023/01/21 01:49:54;;;;;;;;;;;;;;;11.30;69.91;102486.38;1260160;23;623;-67
2023/01/21 01:50:44;;;;;;;;;;;;;;;11.30;69.78;102489.06;1259907;23;669;-67
2023/01/21 01:51:35;;;;;;;;;;;;;;;11.31;69.83;102485.47;1259619;23;828;-67
2023/01/21 01:52:25;;;;;;;;;;;;;;;11.30;69.36;102488.19;1260180;23;630;-67
2023/01/21 01:53:15;;;;;;;;;;;;;;;11.29;70.08;102481.97;1259927;23;629;-67
2023/01/21 01:54:06;;;;;;;;;;;;;;;11.26;69.40;102478.59;1259849;23;633;-67
2023/01/21 01:54:56;;;;;;;;;;;;;;;11.27;69.60;102494.56;1260255;23;638;-67
2023/01/21 01:55:47;;;;;;;;;;;;;;;11.28;69.80;102490.09;1259690;23;657;-67
2023/01/21 01:56:37;;;;;;;;;;;;;;;11.27;69.85;102488.34;1259243;23;1908;-68
2023/01/21 01:57:28;;;;;;;;;;;;;;;11.27;70.09;102489.22;1259804;23;650;-68
2023/01/21 01:58:18;;;;;;;;;;;;;;;11.28;69.53;102482.94;1259872;23;645;-68
2023/01/21 01:59:08;;;;;;;;;;;;;;;11.29;70.21;102487.31;1259822;23;634;-67
2023/01/21 02:00:00;;;;;;;;;;;;;;;11.25;69.96;102488.41;1255173;23;641;-67
2023/01/21 02:00:51;;;;;;;;;;;;;;;11.24;69.25;102494.66;1255193;23;649;-67
2023/01/21 02:01:41;;;;;;;;;;;;;;;11.27;69.92;102496.34;1260849;23;664;-67
2023/01/21 02:02:32;;;;;;;;;;;;;;;11.25;69.59;102492.88;1259741;23;610;-67
2023/01/21 02:04:31;;;;;;;;;;;;;;;11.23;69.62;102498.28;1256109;23;590;-67
2023/01/21 02:05:22;;;;;;;;;;;;;;;11.24;69.60;102500.00;1260978;23;649;-67
2023/01/21 02:06:12;;;;;;;;;;;;;;;11.27;69.97;102504.34;1259936;23;645;-67
2023/01/21 02:07:03;;;;;;;;;;;;;;;11.23;70.25;102503.59;1259794;23;602;-67
2023/01/21 02:07:53;;;;;;;;;;;;;;;11.23;70.21;102503.59;1260003;23;819;-67
2023/01/21 02:08:43;;;;;;;;;;;;;;;11.24;69.89;102500.00;1261564;23;609;-67
2023/01/21 02:09:34;;;;;;;;;;;;;;;11.24;69.43;102505.34;1260343;23;614;-67
2023/01/21 02:10:24;;;;;;;;;;;;;;;11.25;70.15;102512.41;1261515;23;606;-67
2023/01/21 02:11:15;;;;;;;;;;;;;;;11.23;69.68;102505.41;1261516;23;597;-67
2023/01/21 02:12:05;;;;;;;;;;;;;;;11.21;69.74;102508.13;1260410;23;637;-67
2023/01/21 02:12:56;;;;;;;;;;;;;;;11.22;70.30;102511.69;1259712;23;643;-67
2023/01/21 02:13:46;;;;;;;;;;;;;;;11.21;69.75;102510.81;1259767;23;643;-67
2023/01/21 02:14:41;;;;;;;;;;;;;;;11.22;70.07;102503.66;1260244;23;615;-67
2023/01/21 02:15:32;;;;;;;;;;;;;;;11.22;69.97;102509.00;1261650;23;590;-66
2023/01/21 02:16:22;;;;;;;;;;;;;;;11.20;70.24;102513.53;1259807;23;1881;-67
2023/01/21 02:17:13;;;;;;;;;;;;;;;11.20;69.57;102509.06;1260417;23;782;-67
2023/01/21 02:18:03;;;;;;;;;;;;;;;11.21;70.08;102515.28;1261472;23;698;-67
2023/01/21 02:18:54;;;;;;;;;;;;;;;11.22;69.36;102515.22;1261517;23;618;-67
2023/01/21 02:19:44;;;;;;;;;;;;;;;11.21;69.79;102515.28;1259927;23;670;-67
2023/01/21 02:20:35;;;;;;;;;;;;;;;11.18;70.55;102516.25;1261641;23;653;-66
2023/01/21 02:21:25;;;;;;;;;;;;;;;11.16;69.80;102518.13;1259966;23;634;-67
2023/01/21 02:22:16;;;;;;;;;;;;;;;11.19;70.25;102515.34;1260037;23;619;-67
2023/01/21 02:23:06;;;;;;;;;;;;;;;11.17;69.88;102514.53;1259753;23;635;-66
2023/01/21 02:23:56;;;;;;;;;;;;;;;11.17;69.48;102519.84;1260052;23;697;-67
2023/01/21 02:24:47;;;;;;;;;;;;;;;11.16;69.72;102518.13;1261504;23;641;-67
2023/01/21 02:25:37;;;;;;;;;;;;;;;11.18;70.48;102523.41;1259276;23;641;-66
2023/01/21 02:26:28;;;;;;;;;;;;;;;11.17;70.59;102522.53;1259808;23;631;-67
2023/01/21 02:27:18;;;;;;;;;;;;;;;11.18;70.25;102523.41;1259913;23;654;-67
2023/01/21 02:28:09;;;;;;;;;;;;;;;11.18;69.52;102532.28;1261528;23;590;-67
2023/01/21 02:28:59;;;;;;;;;;;;;;;11.19;69.74;102525.13;1259704;23;673;-67
2023/01/21 02:29:51;;;;;;;;;;;;;;;11.19;70.26;102526.00;1259942;23;653;-67
2023/01/21 02:30:41;;;;;;;;;;;;;;;11.20;70.18;102530.41;1261413;23;630;-67
2023/01/21 02:31:32;;;;;;;;;;;;;;;11.18;70.24;102537.59;1255215;23;656;-67
2023/01/21 02:32:22;;;;;;;;;;;;;;;11.17;69.44;102537.66;1255048;23;622;-67
2023/01/21 02:33:13;;;;;;;;;;;;;;;11.15;69.62;102532.38;1260755;23;638;-66
2023/01/21 02:34:03;;;;;;;;;;;;;;;11.18;69.78;102537.59;1259751;23;631;-66
2023/01/21 02:34:54;;;;;;;;;;;;;;;11.17;70.38;102535.00;1259437;23;1290;-66
2023/01/21 02:35:44;;;;;;;;;;;;;;;11.16;69.87;102547.47;1259950;23;654;-66
2023/01/21 02:36:34;;;;;;;;;;;;;;;11.14;70.23;102544.00;1261439;23;1937;-66
2023/01/21 02:37:25;;;;;;;;;;;;;;;11.14;70.33;102544.84;1259561;23;657;-66
2023/01/21 02:38:15;;;;;;;;;;;;;;;11.15;70.23;102543.06;1255656;23;669;-66
2023/01/21 02:39:06;;;;;;;;;;;;;;;11.15;70.39;102545.72;1255147;23;767;-67
2023/01/21 02:39:56;;;;;;;;;;;;;;;11.12;69.78;102543.19;1260106;23;599;-67
2023/01/21 02:40:47;;;;;;;;;;;;;;;11.15;69.70;102548.41;1261901;23;617;-67
2023/01/21 02:41:37;;;;;;;;;;;;;;;11.17;70.26;102549.22;1259598;23;641;-67
2023/01/21 02:42:27;;;;;;;;;;;;;;;11.18;70.02;102548.28;1260282;23;665;-67
2023/01/21 02:43:18;;;;;;;;;;;;;;;11.18;69.60;102542.06;1259604;23;625;-67
2023/01/21 02:44:08;;;;;;;;;;;;;;;11.16;70.11;102549.28;1259905;23;650;-67
2023/01/21 02:44:59;;;;;;;;;;;;;;;11.16;69.77;102550.13;1259551;23;646;-67
2023/01/21 02:45:50;;;;;;;;;;;;;;;11.16;70.29;102563.47;1261471;23;602;-67
2023/01/21 02:46:40;;;;;;;;;;;;;;;11.15;70.49;102553.75;1259767;23;673;-68
2023/01/21 02:47:30;;;;;;;;;;;;;;;11.18;70.01;102550.94;1260056;23;614;-68
2023/01/21 02:48:21;;;;;;;;;;;;;;;11.16;70.28;102555.47;1259662;23;614;-67
2023/01/21 02:49:11;;;;;;;;;;;;;;;11.17;69.80;102562.56;1259703;23;681;-67
2023/01/21 02:50:02;;;;;;;;;;;;;;;11.17;69.66;102562.56;1259511;23;634;-68
2023/01/21 02:50:52;;;;;;;;;;;;;;;11.15;69.85;102564.41;1259639;23;645;-68
2023/01/21 02:51:43;;;;;;;;;;;;;;;11.13;70.57;102568.94;1260033;23;646;-68
2023/01/21 02:52:33;;;;;;;;;;;;;;;11.14;70.44;102563.53;1255307;23;598;-67
2023/01/21 02:53:24;;;;;;;;;;;;;;;11.14;70.50;102573.34;1255275;23;610;-67
2023/01/21 02:54:14;;;;;;;;;;;;;;;11.12;69.51;102569.88;1259913;23;622;-68
2023/01/21 02:55:05;;;;;;;;;;;;;;;11.19;69.81;102567.84;1259534;23;630;-68
2023/01/21 02:55:55;;;;;;;;;;;;;;;11.20;69.85;102570.44;1259520;23;623;-67
2023/01/21 02:56:45;;;;;;;;;;;;;;;11.18;69.96;102574.97;1259803;23;638;-68
2023/01/21 02:57:36;;;;;;;;;;;;;;;11.20;69.94;102567.78;1259760;23;617;-68
2023/01/21 02:58:26;;;;;;;;;;;;;;;11.21;69.89;102573.97;1259867;23;693;-68
2023/01/21 02:59:17;;;;;;;;;;;;;;;11.20;69.56;102578.44;1259516;23;622;-68
2023/01/21 03:00:07;;;;;;;;;;;;;;;11.19;69.60;102567.84;1259784;23;795;-67
2023/01/21 03:00:58;;;;;;;;;;;;;;;11.17;69.45;102578.56;1259914;23;661;-68
2023/01/21 03:01:48;;;;;;;;;;;;;;;11.19;70.01;102575.84;1259726;23;606;-68
2023/01/21 03:02:38;;;;;;;;;;;;;;;11.16;70.26;102576.81;1261397;23;645;-68
2023/01/21 03:03:29;;;;;;;;;;;;;;;11.17;70.30;102578.56;1255134;23;700;-68
2023/01/21 03:04:19;;;;;;;;;;;;;;;11.17;69.60;102583.03;1255044;23;602;-67
2023/01/21 03:05:10;;;;;;;;;;;;;;;11.17;69.73;102586.56;1260617;23;609;-68
2023/01/21 03:06:00;;;;;;;;;;;;;;;11.17;70.14;102583.03;1261329;23;648;-67
2023/01/21 03:06:51;;;;;;;;;;;;;;;11.13;70.26;102584.94;1261309;23;718;-67
2023/01/21 03:07:41;;;;;;;;;;;;;;;11.13;69.63;102584.94;1259619;23;638;-68
2023/01/21 03:08:32;;;;;;;;;;;;;;;11.13;69.63;102593.81;1255166;23;649;-67
2023/01/21 03:09:22;;;;;;;;;;;;;;;11.12;70.52;102588.53;1249049;23;645;-67
2023/01/21 03:10:13;;;;;;;;;;;;;;;11.14;69.96;102586.69;1255000;23;641;-68
2023/01/21 03:11:03;;;;;;;;;;;;;;;11.14;69.46;102589.34;1260601;23;606;-68
2023/01/21 03:11:53;;;;;;;;;;;;;;;11.12;69.55;102591.22;1261399;23;692;-68
2023/01/21 03:12:44;;;;;;;;;;;;;;;11.12;70.48;102591.22;1259777;23;586;-68
2023/01/21 03:17:01;;;;;;;;;;;;;;;11.15;69.69;102601.75;1261432;23;653;-67
2023/01/21 03:17:52;;;;;;;;;;;;;;;11.13;69.50;102592.94;1259584;23;599;-68
2023/01/21 03:18:42;;;;;;;;;;;;;;;11.14;70.29;102597.34;1261375;23;618;-67
2023/01/21 03:19:33;;;;;;;;;;;;;;;11.14;70.38;102594.69;1261459;23;652;-67
2023/01/21 03:20:23;;;;;;;;;;;;;;;11.14;70.01;102602.69;1259686;23;594;-68
2023/01/21 03:21:14;;;;;;;;;;;;;;;11.16;69.66;102603.50;1261408;23;634;-67
2023/01/21 03:22:04;;;;;;;;;;;;;;;11.17;69.53;102605.25;1261264;23;586;-69
2023/01/21 03:22:55;;;;;;;;;;;;;;;11.16;69.58;102600.84;1259557;23;577;-69
2023/01/21 03:23:45;;;;;;;;;;;;;;;11.13;69.94;102604.50;1259565;23;653;-68
2023/01/21 03:24:36;;;;;;;;;;;;;;;11.15;69.90;102596.44;1259904;23;669;-68
2023/01/21 03:25:26;;;;;;;;;;;;;;;11.12;70.16;102602.75;1255045;23;633;-68
2023/01/21 03:26:16;;;;;;;;;;;;;;;11.11;69.69;102601.00;1255056;23;634;-68
2023/01/21 03:27:08;;;;;;;;;;;;;;;11.12;69.54;102601.88;1261246;23;618;-68
2023/01/21 03:27:59;;;;;;;;;;;;;;;11.11;69.66;102602.81;1261429;23;626;-68
2023/01/21 03:28:49;;;;;;;;;;;;;;;11.11;69.56;102606.34;1261234;23;593;-68
2023/01/21 03:29:41;;;;;;;;;;;;;;;11.13;70.15;102599.16;1259927;23;649;-68
2023/01/21 03:30:31;;;;;;;;;;;;;;;11.12;70.01;102604.53;1261368;23;688;-68
2023/01/21 03:31:21;;;;;;;;;;;;;;;11.14;70.04;102600.03;1259891;23;630;-68
2023/01/21 03:32:12;;;;;;;;;;;;;;;11.13;70.08;102606.28;1255130;23;574;-68
2023/01/21 03:33:02;;;;;;;;;;;;;;;11.11;69.46;102600.13;1255119;23;641;-68
2023/01/21 03:33:53;;;;;;;;;;;;;;;11.10;70.08;102606.44;1260291;23;647;-68
2023/01/21 03:34:43;;;;;;;;;;;;;;;11.07;69.43;102604.75;1259567;23;1135;-68
2023/01/21 03:35:34;;;;;;;;;;;;;;;11.09;70.03;102602.03;1261425;23;661;-68
2023/01/21 03:36:24;;;;;;;;;;;;;;;11.10;70.39;102598.44;1259638;23;1940;-68
2023/01/21 03:37:15;;;;;;;;;;;;;;;11.10;70.07;102603.75;1255086;23;629;-68
2023/01/21 03:38:05;;;;;;;;;;;;;;;11.11;69.63;102602.81;1254421;23;631;-68
2023/01/21 03:38:55;;;;;;;;;;;;;;;11.11;70.05;102601.00;1260588;23;656;-68
2023/01/21 03:39:46;;;;;;;;;;;;;;;11.10;69.85;102601.09;1259596;23;724;-68
2023/01/21 03:40:36;;;;;;;;;;;;;;;11.10;69.54;102601.97;1259985;23;739;-68
2023/01/21 03:41:27;;;;;;;;;;;;;;;11.08;69.43;102602.94;1259555;23;665;-68
2023/01/21 03:42:17;;;;;;;;;;;;;;;11.08;70.24;102600.28;1261213;23;618;-68
2023/01/21 03:43:08;;;;;;;;;;;;;;;11.08;69.44;102602.94;1254984;23;677;-68
2023/01/21 03:43:58;;;;;;;;;;;;;;;11.08;70.14;102602.94;1254956;23;633;-68
2023/01/21 03:44:48;;;;;;;;;;;;;;;11.08;70.22;102605.63;1260646;23;821;-69
2023/01/21 03:45:39;;;;;;;;;;;;;;;11.06;69.67;102604.81;1259511;23;775;-68
2023/01/21 03:46:30;;;;;;;;;;;;;;;11.06;69.64;102603.00;1261244;23;661;-68
2023/01/21 03:47:20;;;;;;;;;;;;;;;11.03;70.43;102604.91;1261496;23;619;-68
2023/01/21 03:48:11;;;;;;;;;;;;;;;11.04;69.75;102607.53;1260505;23;704;-68
2023/01/21 03:49:01;;;;;;;;;;;;;;;11.05;69.49;102609.28;1259680;23;633;-67
2023/01/21 03:49:52;;;;;;;;;;;;;;;11.05;69.65;102603.94;1259820;23;638;-67
2023/01/21 03:50:42;;;;;;;;;;;;;;;11.06;70.33;102612.81;1261328;23;631;-67
2023/01/21 03:51:32;;;;;;;;;;;;;;;11.05;70.16;102611.06;1261194;23;590;-68
2023/01/21 03:52:23;;;;;;;;;;;;;;;11.05;69.94;102611.06;1258921;23;689;-67
2023/01/21 03:53:13;;;;;;;;;;;;;;;11.03;69.78;102608.47;1259725;23;613;-68
2023/01/21 03:54:04;;;;;;;;;;;;;;;11.05;69.90;102609.28;1259849;23;630;-67
2023/01/21 03:54:54;;;;;;;;;;;;;;;11.08;69.51;102605.63;1259580;23;661;-68
2023/01/21 03:55:45;;;;;;;;;;;;;;;11.07;69.43;102611.88;1254971;23;669;-68
2023/01/21 03:56:35;;;;;;;;;;;;;;;11.09;69.95;102612.69;1254823;23;1886;-68
2023/01/21 03:57:25;;;;;;;;;;;;;;;11.06;69.53;102610.16;1260643;23;637;-68
2023/01/21 03:58:16;;;;;;;;;;;;;;;11.08;70.13;102618.97;1259488;23;633;-68
2023/01/21 03:59:06;;;;;;;;;;;;;;;11.05;69.76;102624.41;1259682;23;575;-68
2023/01/21 03:59:57;;;;;;;;;;;;;;;11.05;70.43;102611.94;1255037;23;633;-68
2023/01/21 04:00:48;;;;;;;;;;;;;;;11.05;69.60;102616.41;1254985;23;611;-68
2023/01/21 04:01:39;;;;;;;;;;;;;;;11.03;69.65;102620.94;1261248;23;661;-68
2023/01/21 04:02:29;;;;;;;;;;;;;;;11.01;70.62;102620.97;1261469;23;613;-68
2023/01/21 04:03:20;;;;;;;;;;;;;;;11.02;69.87;102621.84;1261475;23;590;-68
2023/01/21 04:04:10;;;;;;;;;;;;;;;11.01;69.92;102620.09;1259514;23;618;-67
2023/01/21 04:05:01;;;;;;;;;;;;;;;11.02;70.50;102621.84;1261245;23;653;-68
2023/01/21 04:05:51;;;;;;;;;;;;;;;11.00;70.06;102618.38;1259547;23;656;-67
2023/01/21 04:06:42;;;;;;;;;;;;;;;11.01;70.24;102617.44;1259847;23;638;-67
2023/01/21 04:07:32;;;;;;;;;;;;;;;11.01;69.90;102620.97;1260518;23;653;-67
2023/01/21 04:08:23;;;;;;;;;;;;;;;11.02;70.28;102627.19;1259760;23;646;-67
2023/01/21 04:09:13;;;;;;;;;;;;;;;11.02;69.93;102629.84;1259628;23;641;-67
2023/01/21 04:10:04;;;;;;;;;;;;;;;11.03;70.25;102626.25;1259812;23;704;-67
2023/01/21 04:10:54;;;;;;;;;;;;;;;11.04;69.47;102630.66;1259506;23;673;-67
2023/01/21 04:11:45;;;;;;;;;;;;;;;11.04;69.67;102634.22;1259952;23;602;-67
2023/01/21 04:12:35;;;;;;;;;;;;;;;11.07;70.02;102627.88;1259562;23;614;-67
2023/01/21 04:13:25;;;;;;;;;;;;;;;11.07;69.56;102627.88;1261322;23;652;-67
2023/01/21 04:14:16;;;;;;;;;;;;;;;11.05;69.70;102627.06;1259480;23;650;-67
2023/01/21 04:15:06;;;;;;;;;;;;;;;11.05;69.49;102635.94;1261330;23;676;-67
2023/01/21 04:15:57;;;;;;;;;;;;;;;11.08;69.58;102635.84;1261343;23;617;-67
2023/01/21 04:16:47;;;;;;;;;;;;;;;11.06;70.07;102635.03;1261226;23;1928;-68
2023/01/21 04:17:38;;;;;;;;;;;;;;;11.05;70.07;102632.41;1259829;23;626;-67
2023/01/21 04:18:28;;;;;;;;;;;;;;;11.04;70.06;102639.53;1255040;23;598;-67
2023/01/21 04:19:18;;;;;;;;;;;;;;;11.03;69.41;102636.94;1255034;23;606;-67
2023/01/21 04:20:09;;;;;;;;;;;;;;;11.04;70.13;102642.22;1261062;23;590;-67
2023/01/21 04:20:59;;;;;;;;;;;;;;;11.06;69.99;102636.81;1261399;23;594;-67
2023/01/21 04:21:50;;;;;;;;;;;;;;;11.02;69.65;102643.19;1259755;23;634;-67
2023/01/21 04:22:40;;;;;;;;;;;;;;;11.03;69.96;102640.47;1259641;23;657;-67
2023/01/21 04:23:31;;;;;;;;;;;;;;;11.02;70.11;102637.88;1261202;23;645;-67
2023/01/21 04:24:21;;;;;;;;;;;;;;;11.02;70.04;102637.88;1259650;23;570;-67
2023/01/21 04:25:11;;;;;;;;;;;;;;;11.02;69.67;102640.53;1259653;23;653;-67
2023/01/21 04:26:02;;;;;;;;;;;;;;;11.02;69.66;102644.06;1259280;23;685;-67
2023/01/21 04:26:52;;;;;;;;;;;;;;;11.01;69.35;102641.44;1261307;23;641;-67
2023/01/21 04:27:43;;;;;;;;;;;;;;;11.01;70.31;102646.78;1259747;23;618;-67
2023/01/21 04:28:33;;;;;;;;;;;;;;;11.01;69.62;102642.31;1261361;23;645;-67
2023/01/21 04:29:23;;;;;;;;;;;;;;;11.00;69.90;102637.03;1261179;23;680;-67
2023/01/21 04:30:14;;;;;;;;;;;;;;;11.02;69.96;102637.88;1259477;23;626;-68